sensor_id;sensor_type;location;lat;lon;timestamp;temperature;humidity
4399;DHT22;2213;49.720;7.296;2023-02-19T00:00:17;9.30;99.90
4399;DHT22;2213;49.720;7.296;2023-02-19T00:02:47;9.30;99.90
4399;DHT22;2213;49.720;7.296;2023-02-19T00:05:19;9.30;99.90
4399;DHT22;2213;49.720;7.296;2023-02-19T00:07:49;9.20;99.90
4399;DHT22;2213;49.720;7.296;2023-02-19T00:10:17;9.30;99.90
4399;DHT22;2213;49.720;7.296;2023-02-19T00:12:48;9.40;99.90
4399;DHT22;2213;49.720;7.296;2023-02-19T00:15:17;9.30;99.90
4399;DHT22;2213;49.720;7.296;2023-02-19T00:17:46;9.30;99.90
4399;DHT22;2213;49.720;7.296;2023-02-19T00:20:17;9.20;99.90
4399;DHT22;2213;49.720;7.296;2023-02-19T00:22:47;9.20;99.90
4399;DHT22;2213;49.720;7.296;2023-02-19T00:25:18;9.30;99.90
4399;DHT22;2213;49.720;7.296;2023-02-19T00:27:50;9.30;99.90
4399;DHT22;2213;49.720;7.296;2023-02-19T00:30:20;9.30;99.90
4399;DHT22;2213;49.720;7.296;2023-02-19T00:32:49;9.20;99.90
4399;DHT22;2213;49.720;7.296;2023-02-19T00:35:19;9.20;99.90
4399;DHT22;2213;49.720;7.296;2023-02-19T00:37:49;9.30;99.90
4399;DHT22;2213;49.720;7.296;2023-02-19T00:40:18;9.40;99.90
4399;DHT22;2213;49.720;7.296;2023-02-19T00:42:51;9.40;99.90
4399;DHT22;2213;49.720;7.296;2023-02-19T00:45:20;9.40;99.90
4399;DHT22;2213;49.720;7.296;2023-02-19T00:47:49;9.40;99.90
4399;DHT22;2213;49.720;7.296;2023-02-19T00:50:18;9.40;99.90
4399;DHT22;2213;49.720;7.296;2023-02-19T00:52:49;9.40;99.90
4399;DHT22;2213;49.720;7.296;2023-02-19T00:55:18;9.40;99.90
4399;DHT22;2213;49.720;7.296;2023-02-19T00:57:47;9.30;99.90
4399;DHT22;2213;49.720;7.296;2023-02-19T01:00:19;9.30;99.90
4399;DHT22;2213;49.720;7.296;2023-02-19T01:02:49;9.30;99.90
4399;DHT22;2213;49.720;7.296;2023-02-19T01:05:19;9.40;99.90
4399;DHT22;2213;49.720;7.296;2023-02-19T01:07:49;9.30;99.90
4399;DHT22;2213;49.720;7.296;2023-02-19T01:10:20;9.40;99.90
4399;DHT22;2213;49.720;7.296;2023-02-19T01:12:51;9.30;99.90
4399;DHT22;2213;49.720;7.296;2023-02-19T01:15:21;9.30;99.90
4399;DHT22;2213;49.720;7.296;2023-02-19T01:17:51;9.30;99.90
4399;DHT22;2213;49.720;7.296;2023-02-19T01:20:20;9.30;99.90
4399;DHT22;2213;49.720;7.296;2023-02-19T01:22:49;9.30;99.90
4399;DHT22;2213;49.720;7.296;2023-02-19T01:25:18;9.40;99.90
4399;DHT22;2213;49.720;7.296;2023-02-19T01:27:48;9.40;99.90
4399;DHT22;2213;49.720;7.296;2023-02-19T01:30:17;9.40;99.90
4399;DHT22;2213;49.720;7.296;2023-02-19T01:32:48;9.30;99.90
4399;DHT22;2213;49.720;7.296;2023-02-19T01:35:18;9.30;99.90
4399;DHT22;2213;49.720;7.296;2023-02-19T01:37:47;9.20;99.90
4399;DHT22;2213;49.720;7.296;2023-02-19T01:40:16;9.20;99.90
4399;DHT22;2213;49.720;7.296;2023-02-19T01:42:48;9.30;99.90
4399;DHT22;2213;49.720;7.296;2023-02-19T01:45:22;9.20;99.90
4399;DHT22;2213;49.720;7.296;2023-02-19T01:48:05;9.20;99.90
4399;DHT22;2213;49.720;7.296;2023-02-19T01:50:40;9.20;99.90
4399;DHT22;2213;49.720;7.296;2023-02-19T01:53:15;9.30;99.90
4399;DHT22;2213;49.720;7.296;2023-02-19T01:55:53;9.30;99.90
4399;DHT22;2213;49.720;7.296;2023-02-19T01:58:29;9.30;99.90
4399;DHT22;2213;49.720;7.296;2023-02-19T02:01:04;9.30;99.90
4399;DHT22;2213;49.720;7.296;2023-02-19T02:03:39;9.30;99.90
4399;DHT22;2213;49.720;7.296;2023-02-19T02:06:16;9.30;99.90
4399;DHT22;2213;49.720;7.296;2023-02-19T02:08:50;9.30;99.90
4399;DHT22;2213;49.720;7.296;2023-02-19T02:11:40;9.30;99.90
4399;DHT22;2213;49.720;7.296;2023-02-19T02:14:12;9.30;99.90
4399;DHT22;2213;49.720;7.296;2023-02-19T02:16:51;9.40;99.90
4399;DHT22;2213;49.720;7.296;2023-02-19T02:20:00;9.40;99.90
4399;DHT22;2213;49.720;7.296;2023-02-19T02:22:44;9.40;99.90
4399;DHT22;2213;49.720;7.296;2023-02-19T02:25:59;9.40;99.90
4399;DHT22;2213;49.720;7.296;2023-02-19T02:29:04;9.50;99.90
4399;DHT22;2213;49.720;7.296;2023-02-19T02:32:15;9.50;99.90
4399;DHT22;2213;49.720;7.296;2023-02-19T02:34:50;9.30;99.90
4399;DHT22;2213;49.720;7.296;2023-02-19T02:37:23;9.30;99.90
4399;DHT22;2213;49.720;7.296;2023-02-19T02:39:57;9.30;99.90
4399;DHT22;2213;49.720;7.296;2023-02-19T02:42:27;9.30;99.90
4399;DHT22;2213;49.720;7.296;2023-02-19T02:44:58;9.40;99.90
4399;DHT22;2213;49.720;7.296;2023-02-19T02:48:27;9.40;99.90
4399;DHT22;2213;49.720;7.296;2023-02-19T02:51:09;9.20;99.90
4399;DHT22;2213;49.720;7.296;2023-02-19T02:53:46;9.30;99.90
4399;DHT22;2213;49.720;7.296;2023-02-19T02:56:39;9.30;99.90
4399;DHT22;2213;49.720;7.296;2023-02-19T02:59:12;9.40;99.90
4399;DHT22;2213;49.720;7.296;2023-02-19T03:01:47;9.30;99.90
4399;DHT22;2213;49.720;7.296;2023-02-19T03:04:45;9.30;99.90
4399;DHT22;2213;49.720;7.296;2023-02-19T03:07:38;9.30;99.90
4399;DHT22;2213;49.720;7.296;2023-02-19T03:10:16;9.30;99.90
4399;DHT22;2213;49.720;7.296;2023-02-19T03:12:52;9.30;99.90
4399;DHT22;2213;49.720;7.296;2023-02-19T03:15:43;9.40;99.90
4399;DHT22;2213;49.720;7.296;2023-02-19T03:18:47;9.30;99.90
4399;DHT22;2213;49.720;7.296;2023-02-19T03:21:40;9.40;99.90
4399;DHT22;2213;49.720;7.296;2023-02-19T03:24:14;9.40;99.90
4399;DHT22;2213;49.720;7.296;2023-02-19T03:27:03;9.40;99.90
4399;DHT22;2213;49.720;7.296;2023-02-19T03:29:37;9.30;99.90
4399;DHT22;2213;49.720;7.296;2023-02-19T03:32:12;9.30;99.90
4399;DHT22;2213;49.720;7.296;2023-02-19T03:34:51;9.30;99.90
4399;DHT22;2213;49.720;7.296;2023-02-19T03:37:28;9.20;99.90
4399;DHT22;2213;49.720;7.296;2023-02-19T03:40:00;9.20;99.90
4399;DHT22;2213;49.720;7.296;2023-02-19T03:42:35;9.20;99.90
4399;DHT22;2213;49.720;7.296;2023-02-19T03:45:26;9.20;99.90
4399;DHT22;2213;49.720;7.296;2023-02-19T03:48:27;9.20;99.90
4399;DHT22;2213;49.720;7.296;2023-02-19T03:51:17;9.30;99.90
4399;DHT22;2213;49.720;7.296;2023-02-19T03:54:10;9.30;99.90
4399;DHT22;2213;49.720;7.296;2023-02-19T03:56:47;9.10;99.90
4399;DHT22;2213;49.720;7.296;2023-02-19T03:59:27;9.20;99.90
4399;DHT22;2213;49.720;7.296;2023-02-19T04:02:05;9.20;99.90
4399;DHT22;2213;49.720;7.296;2023-02-19T04:04:44;9.10;99.90
4399;DHT22;2213;49.720;7.296;2023-02-19T04:07:16;9.10;99.90
4399;DHT22;2213;49.720;7.296;2023-02-19T04:09:49;9.10;99.90
4399;DHT22;2213;49.720;7.296;2023-02-19T04:12:21;9.20;99.90
4399;DHT22;2213;49.720;7.296;2023-02-19T04:14:56;9.20;99.90
4399;DHT22;2213;49.720;7.296;2023-02-19T04:17:32;9.20;99.90
4399;DHT22;2213;49.720;7.296;2023-02-19T04:20:07;9.20;99.90
4399;DHT22;2213;49.720;7.296;2023-02-19T04:22:39;9.10;99.90
4399;DHT22;2213;49.720;7.296;2023-02-19T04:25:13;9.10;99.90
4399;DHT22;2213;49.720;7.296;2023-02-19T04:27:44;9.20;99.90
4399;DHT22;2213;49.720;7.296;2023-02-19T04:30:14;9.10;99.90
4399;DHT22;2213;49.720;7.296;2023-02-19T04:32:44;9.10;99.90
4399;DHT22;2213;49.720;7.296;2023-02-19T04:35:15;9.10;99.90
4399;DHT22;2213;49.720;7.296;2023-02-19T04:37:46;9.00;99.90
4399;DHT22;2213;49.720;7.296;2023-02-19T04:40:17;9.00;99.90
4399;DHT22;2213;49.720;7.296;2023-02-19T04:42:48;9.10;99.90
4399;DHT22;2213;49.720;7.296;2023-02-19T04:45:17;9.10;99.90
4399;DHT22;2213;49.720;7.296;2023-02-19T04:47:47;9.10;99.90
4399;DHT22;2213;49.720;7.296;2023-02-19T04:50:16;9.00;99.90
4399;DHT22;2213;49.720;7.296;2023-02-19T04:52:47;9.00;99.90
4399;DHT22;2213;49.720;7.296;2023-02-19T04:55:17;9.00;99.90
4399;DHT22;2213;49.720;7.296;2023-02-19T04:57:47;9.10;99.90
4399;DHT22;2213;49.720;7.296;2023-02-19T05:00:17;9.00;99.90
4399;DHT22;2213;49.720;7.296;2023-02-19T05:02:48;9.10;99.90
4399;DHT22;2213;49.720;7.296;2023-02-19T05:05:17;9.10;99.90
4399;DHT22;2213;49.720;7.296;2023-02-19T05:07:47;9.00;99.90
4399;DHT22;2213;49.720;7.296;2023-02-19T05:10:18;9.00;99.90
4399;DHT22;2213;49.720;7.296;2023-02-19T05:12:48;9.00;99.90
4399;DHT22;2213;49.720;7.296;2023-02-19T05:15:19;9.00;99.90
4399;DHT22;2213;49.720;7.296;2023-02-19T05:17:49;9.00;99.90
4399;DHT22;2213;49.720;7.296;2023-02-19T05:20:18;9.00;99.90
4399;DHT22;2213;49.720;7.296;2023-02-19T05:22:50;9.00;99.90
4399;DHT22;2213;49.720;7.296;2023-02-19T05:25:20;8.90;99.90
4399;DHT22;2213;49.720;7.296;2023-02-19T05:27:51;8.90;99.90
4399;DHT22;2213;49.720;7.296;2023-02-19T05:30:41;9.00;99.90
4399;DHT22;2213;49.720;7.296;2023-02-19T05:33:10;9.00;99.90
4399;DHT22;2213;49.720;7.296;2023-02-19T05:35:43;8.80;99.90
4399;DHT22;2213;49.720;7.296;2023-02-19T05:38:15;8.90;99.90
4399;DHT22;2213;49.720;7.296;2023-02-19T05:40:48;8.90;99.90
4399;DHT22;2213;49.720;7.296;2023-02-19T05:43:18;8.90;99.90
4399;DHT22;2213;49.720;7.296;2023-02-19T05:45:49;8.90;99.90
4399;DHT22;2213;49.720;7.296;2023-02-19T05:48:18;8.90;99.90
4399;DHT22;2213;49.720;7.296;2023-02-19T05:50:49;8.80;99.90
4399;DHT22;2213;49.720;7.296;2023-02-19T05:53:20;8.80;99.90
4399;DHT22;2213;49.720;7.296;2023-02-19T05:55:52;8.80;99.90
4399;DHT22;2213;49.720;7.296;2023-02-19T05:58:23;8.80;99.90
4399;DHT22;2213;49.720;7.296;2023-02-19T06:00:56;8.70;99.90
4399;DHT22;2213;49.720;7.296;2023-02-19T06:03:26;8.70;99.90
4399;DHT22;2213;49.720;7.296;2023-02-19T06:05:57;8.80;99.90
4399;DHT22;2213;49.720;7.296;2023-02-19T06:08:28;8.80;99.90
4399;DHT22;2213;49.720;7.296;2023-02-19T06:11:00;8.60;99.90
4399;DHT22;2213;49.720;7.296;2023-02-19T06:13:31;8.70;99.90
4399;DHT22;2213;49.720;7.296;2023-02-19T06:16:02;8.80;99.90
4399;DHT22;2213;49.720;7.296;2023-02-19T06:18:35;8.80;99.90
4399;DHT22;2213;49.720;7.296;2023-02-19T06:21:08;8.70;99.90
4399;DHT22;2213;49.720;7.296;2023-02-19T06:23:40;8.70;99.90
4399;DHT22;2213;49.720;7.296;2023-02-19T06:26:13;8.80;99.90
4399;DHT22;2213;49.720;7.296;2023-02-19T06:28:46;8.70;99.90
4399;DHT22;2213;49.720;7.296;2023-02-19T06:31:17;8.70;99.90
4399;DHT22;2213;49.720;7.296;2023-02-19T06:33:47;8.80;99.90
4399;DHT22;2213;49.720;7.296;2023-02-19T06:36:19;8.80;99.90
4399;DHT22;2213;49.720;7.296;2023-02-19T06:38:48;8.80;99.90
4399;DHT22;2213;49.720;7.296;2023-02-19T06:41:20;8.70;99.90
4399;DHT22;2213;49.720;7.296;2023-02-19T06:43:50;8.70;99.90
4399;DHT22;2213;49.720;7.296;2023-02-19T06:46:20;8.80;99.90
4399;DHT22;2213;49.720;7.296;2023-02-19T06:48:49;8.70;99.90
4399;DHT22;2213;49.720;7.296;2023-02-19T06:51:18;8.80;99.90
4399;DHT22;2213;49.720;7.296;2023-02-19T06:53:50;8.80;99.90
4399;DHT22;2213;49.720;7.296;2023-02-19T06:56:25;8.80;99.90
4399;DHT22;2213;49.720;7.296;2023-02-19T06:58:57;8.80;99.90
4399;DHT22;2213;49.720;7.296;2023-02-19T07:01:28;8.70;99.90
4399;DHT22;2213;49.720;7.296;2023-02-19T07:04:00;8.70;99.90
4399;DHT22;2213;49.720;7.296;2023-02-19T07:06:31;8.70;99.90
4399;DHT22;2213;49.720;7.296;2023-02-19T07:09:03;8.80;99.90
4399;DHT22;2213;49.720;7.296;2023-02-19T07:11:37;8.80;99.90
4399;DHT22;2213;49.720;7.296;2023-02-19T07:14:13;8.80;99.90
4399;DHT22;2213;49.720;7.296;2023-02-19T07:16:45;8.70;99.90
4399;DHT22;2213;49.720;7.296;2023-02-19T07:19:15;8.80;99.90
4399;DHT22;2213;49.720;7.296;2023-02-19T07:21:46;8.80;99.90
4399;DHT22;2213;49.720;7.296;2023-02-19T07:24:14;8.80;99.90
4399;DHT22;2213;49.720;7.296;2023-02-19T07:26:46;8.80;99.90
4399;DHT22;2213;49.720;7.296;2023-02-19T07:29:17;8.90;99.90
4399;DHT22;2213;49.720;7.296;2023-02-19T07:31:47;8.90;99.90
4399;DHT22;2213;49.720;7.296;2023-02-19T07:34:17;9.00;99.90
4399;DHT22;2213;49.720;7.296;2023-02-19T07:36:47;8.90;99.90
4399;DHT22;2213;49.720;7.296;2023-02-19T07:39:16;8.90;99.90
4399;DHT22;2213;49.720;7.296;2023-02-19T07:41:48;8.80;99.90
4399;DHT22;2213;49.720;7.296;2023-02-19T07:44:20;8.90;99.90
4399;DHT22;2213;49.720;7.296;2023-02-19T07:46:49;8.90;99.90
4399;DHT22;2213;49.720;7.296;2023-02-19T07:49:21;9.00;99.90
4399;DHT22;2213;49.720;7.296;2023-02-19T07:51:51;9.00;99.90
4399;DHT22;2213;49.720;7.296;2023-02-19T07:54:21;9.00;99.90
4399;DHT22;2213;49.720;7.296;2023-02-19T07:56:53;9.00;99.90
4399;DHT22;2213;49.720;7.296;2023-02-19T07:59:22;9.00;99.90
4399;DHT22;2213;49.720;7.296;2023-02-19T08:01:51;9.00;99.90
4399;DHT22;2213;49.720;7.296;2023-02-19T08:04:37;8.90;99.90
4399;DHT22;2213;49.720;7.296;2023-02-19T08:07:07;9.00;99.90
4399;DHT22;2213;49.720;7.296;2023-02-19T08:09:38;9.10;99.90
4399;DHT22;2213;49.720;7.296;2023-02-19T08:12:10;9.10;99.90
4399;DHT22;2213;49.720;7.296;2023-02-19T08:14:57;9.00;99.90
4399;DHT22;2213;49.720;7.296;2023-02-19T08:17:27;9.00;99.90
4399;DHT22;2213;49.720;7.296;2023-02-19T08:19:57;9.00;99.90
4399;DHT22;2213;49.720;7.296;2023-02-19T08:22:26;9.10;99.90
4399;DHT22;2213;49.720;7.296;2023-02-19T08:24:55;9.10;99.90
4399;DHT22;2213;49.720;7.296;2023-02-19T08:27:26;9.20;99.90
4399;DHT22;2213;49.720;7.296;2023-02-19T08:29:56;9.10;99.90
4399;DHT22;2213;49.720;7.296;2023-02-19T08:32:25;9.10;99.90
4399;DHT22;2213;49.720;7.296;2023-02-19T08:34:54;9.10;99.90
4399;DHT22;2213;49.720;7.296;2023-02-19T08:37:23;9.20;99.90
4399;DHT22;2213;49.720;7.296;2023-02-19T08:39:53;9.10;99.90
4399;DHT22;2213;49.720;7.296;2023-02-19T08:42:23;9.10;99.90
4399;DHT22;2213;49.720;7.296;2023-02-19T08:44:54;9.10;99.90
4399;DHT22;2213;49.720;7.296;2023-02-19T08:47:25;9.20;99.90
4399;DHT22;2213;49.720;7.296;2023-02-19T08:49:55;9.20;99.90
4399;DHT22;2213;49.720;7.296;2023-02-19T08:52:26;9.30;99.90
4399;DHT22;2213;49.720;7.296;2023-02-19T08:54:56;9.40;99.90
4399;DHT22;2213;49.720;7.296;2023-02-19T08:57:25;9.30;99.90
4399;DHT22;2213;49.720;7.296;2023-02-19T08:59:56;9.30;99.90
4399;DHT22;2213;49.720;7.296;2023-02-19T09:02:25;9.30;99.90
4399;DHT22;2213;49.720;7.296;2023-02-19T09:04:55;9.30;99.90
4399;DHT22;2213;49.720;7.296;2023-02-19T09:07:24;9.30;99.90
4399;DHT22;2213;49.720;7.296;2023-02-19T09:09:54;9.30;99.90
4399;DHT22;2213;49.720;7.296;2023-02-19T09:12:25;9.40;99.90
4399;DHT22;2213;49.720;7.296;2023-02-19T09:14:56;9.30;99.90
4399;DHT22;2213;49.720;7.296;2023-02-19T09:17:27;9.30;99.90
4399;DHT22;2213;49.720;7.296;2023-02-19T09:19:56;9.40;99.90
4399;DHT22;2213;49.720;7.296;2023-02-19T09:22:25;9.40;99.90
4399;DHT22;2213;49.720;7.296;2023-02-19T09:24:54;9.50;99.90
4399;DHT22;2213;49.720;7.296;2023-02-19T09:27:23;9.40;99.90
4399;DHT22;2213;49.720;7.296;2023-02-19T09:29:55;9.40;99.90
4399;DHT22;2213;49.720;7.296;2023-02-19T09:32:25;9.40;99.90
4399;DHT22;2213;49.720;7.296;2023-02-19T09:34:54;9.40;99.90
4399;DHT22;2213;49.720;7.296;2023-02-19T09:37:24;9.50;99.90
4399;DHT22;2213;49.720;7.296;2023-02-19T09:39:55;9.50;99.90
4399;DHT22;2213;49.720;7.296;2023-02-19T09:42:27;9.60;99.90
4399;DHT22;2213;49.720;7.296;2023-02-19T09:45:01;9.50;99.90
4399;DHT22;2213;49.720;7.296;2023-02-19T09:47:33;9.60;99.90
4399;DHT22;2213;49.720;7.296;2023-02-19T09:50:06;9.60;99.90
4399;DHT22;2213;49.720;7.296;2023-02-19T09:52:40;9.60;99.90
4399;DHT22;2213;49.720;7.296;2023-02-19T09:55:21;9.60;99.90
4399;DHT22;2213;49.720;7.296;2023-02-19T09:58:02;9.60;99.90
4399;DHT22;2213;49.720;7.296;2023-02-19T10:00:48;9.70;99.90
4399;DHT22;2213;49.720;7.296;2023-02-19T10:03:22;9.70;99.90
4399;DHT22;2213;49.720;7.296;2023-02-19T10:05:57;9.70;99.90
4399;DHT22;2213;49.720;7.296;2023-02-19T10:08:31;9.80;99.90
4399;DHT22;2213;49.720;7.296;2023-02-19T10:11:04;9.80;99.90
4399;DHT22;2213;49.720;7.296;2023-02-19T10:13:35;9.80;99.90
4399;DHT22;2213;49.720;7.296;2023-02-19T10:16:12;9.80;99.90
4399;DHT22;2213;49.720;7.296;2023-02-19T10:18:45;9.90;99.90
4399;DHT22;2213;49.720;7.296;2023-02-19T10:21:19;9.90;99.90
4399;DHT22;2213;49.720;7.296;2023-02-19T10:23:55;10.00;99.90
4399;DHT22;2213;49.720;7.296;2023-02-19T10:26:29;10.10;99.90
4399;DHT22;2213;49.720;7.296;2023-02-19T10:29:01;10.00;99.90
4399;DHT22;2213;49.720;7.296;2023-02-19T10:31:32;10.00;99.90
4399;DHT22;2213;49.720;7.296;2023-02-19T10:34:01;10.00;99.90
4399;DHT22;2213;49.720;7.296;2023-02-19T10:36:36;10.00;99.90
4399;DHT22;2213;49.720;7.296;2023-02-19T10:39:30;10.10;99.90
4399;DHT22;2213;49.720;7.296;2023-02-19T10:42:37;10.10;99.90
4399;DHT22;2213;49.720;7.296;2023-02-19T10:45:18;10.10;99.90
4399;DHT22;2213;49.720;7.296;2023-02-19T10:47:52;10.10;99.90
4399;DHT22;2213;49.720;7.296;2023-02-19T10:50:25;10.10;99.90
4399;DHT22;2213;49.720;7.296;2023-02-19T10:52:59;10.10;99.90
4399;DHT22;2213;49.720;7.296;2023-02-19T10:55:32;10.20;99.90
4399;DHT22;2213;49.720;7.296;2023-02-19T10:58:22;10.10;99.90
4399;DHT22;2213;49.720;7.296;2023-02-19T11:01:10;10.00;99.90
4399;DHT22;2213;49.720;7.296;2023-02-19T11:03:42;10.10;99.90
4399;DHT22;2213;49.720;7.296;2023-02-19T11:06:12;10.20;99.90
4399;DHT22;2213;49.720;7.296;2023-02-19T11:08:51;10.30;99.90
4399;DHT22;2213;49.720;7.296;2023-02-19T11:11:33;10.20;99.90
4399;DHT22;2213;49.720;7.296;2023-02-19T11:14:11;10.30;99.90
4399;DHT22;2213;49.720;7.296;2023-02-19T11:16:44;10.20;99.90
4399;DHT22;2213;49.720;7.296;2023-02-19T11:19:29;10.30;99.90
4399;DHT22;2213;49.720;7.296;2023-02-19T11:22:18;10.30;99.90
4399;DHT22;2213;49.720;7.296;2023-02-19T11:25:00;10.30;99.90
4399;DHT22;2213;49.720;7.296;2023-02-19T11:27:34;10.20;99.90
4399;DHT22;2213;49.720;7.296;2023-02-19T11:30:39;10.20;99.90
4399;DHT22;2213;49.720;7.296;2023-02-19T11:33:24;10.30;99.90
4399;DHT22;2213;49.720;7.296;2023-02-19T11:36:29;10.50;99.90
4399;DHT22;2213;49.720;7.296;2023-02-19T11:39:17;10.50;99.90
4399;DHT22;2213;49.720;7.296;2023-02-19T11:41:59;10.50;99.90
4399;DHT22;2213;49.720;7.296;2023-02-19T11:44:48;10.40;99.90
4399;DHT22;2213;49.720;7.296;2023-02-19T11:47:51;10.30;99.90
4399;DHT22;2213;49.720;7.296;2023-02-19T11:50:43;10.30;99.90
4399;DHT22;2213;49.720;7.296;2023-02-19T11:53:26;10.40;99.90
4399;DHT22;2213;49.720;7.296;2023-02-19T11:56:12;10.40;99.90
4399;DHT22;2213;49.720;7.296;2023-02-19T11:58:58;10.50;99.90
4399;DHT22;2213;49.720;7.296;2023-02-19T12:01:43;10.50;99.90
4399;DHT22;2213;49.720;7.296;2023-02-19T12:08:05;10.30;99.90
4399;DHT22;2213;49.720;7.296;2023-02-19T12:11:12;10.40;99.90
4399;DHT22;2213;49.720;7.296;2023-02-19T12:17:46;10.40;99.90
4399;DHT22;2213;49.720;7.296;2023-02-19T12:20:29;10.40;99.90
4399;DHT22;2213;49.720;7.296;2023-02-19T12:23:32;10.50;99.90
4399;DHT22;2213;49.720;7.296;2023-02-19T12:26:34;10.60;99.90
4399;DHT22;2213;49.720;7.296;2023-02-19T12:29:22;10.50;99.90
4399;DHT22;2213;49.720;7.296;2023-02-19T12:32:19;10.50;99.90
4399;DHT22;2213;49.720;7.296;2023-02-19T12:35:34;10.60;99.90
4399;DHT22;2213;49.720;7.296;2023-02-19T12:38:21;10.50;99.90
4399;DHT22;2213;49.720;7.296;2023-02-19T12:41:11;10.50;99.90
4399;DHT22;2213;49.720;7.296;2023-02-19T12:43:53;10.60;99.90
4399;DHT22;2213;49.720;7.296;2023-02-19T12:46:31;10.60;99.90
4399;DHT22;2213;49.720;7.296;2023-02-19T12:49:08;10.60;99.90
4399;DHT22;2213;49.720;7.296;2023-02-19T12:51:44;10.70;99.90
4399;DHT22;2213;49.720;7.296;2023-02-19T12:54:22;10.70;99.90
4399;DHT22;2213;49.720;7.296;2023-02-19T12:57:01;10.60;99.90
4399;DHT22;2213;49.720;7.296;2023-02-19T12:59:39;10.60;99.90
4399;DHT22;2213;49.720;7.296;2023-02-19T13:02:17;10.70;99.90
4399;DHT22;2213;49.720;7.296;2023-02-19T13:04:57;10.60;99.90
4399;DHT22;2213;49.720;7.296;2023-02-19T13:07:35;10.60;99.90
4399;DHT22;2213;49.720;7.296;2023-02-19T13:10:18;10.70;99.90
4399;DHT22;2213;49.720;7.296;2023-02-19T13:12:56;10.60;99.90
4399;DHT22;2213;49.720;7.296;2023-02-19T13:15:33;10.60;99.90
4399;DHT22;2213;49.720;7.296;2023-02-19T13:18:11;10.50;99.90
4399;DHT22;2213;49.720;7.296;2023-02-19T13:20:45;10.60;99.90
4399;DHT22;2213;49.720;7.296;2023-02-19T13:23:21;10.60;99.90
4399;DHT22;2213;49.720;7.296;2023-02-19T13:29:30;10.60;99.90
4399;DHT22;2213;49.720;7.296;2023-02-19T13:32:51;10.70;99.90
4399;DHT22;2213;49.720;7.296;2023-02-19T13:38:42;10.40;99.90
4399;DHT22;2213;49.720;7.296;2023-02-19T13:41:19;10.50;99.90
4399;DHT22;2213;49.720;7.296;2023-02-19T13:43:57;10.50;99.90
4399;DHT22;2213;49.720;7.296;2023-02-19T13:46:37;10.40;99.90
4399;DHT22;2213;49.720;7.296;2023-02-19T13:49:44;10.40;99.90
4399;DHT22;2213;49.720;7.296;2023-02-19T13:52:40;10.40;99.90
4399;DHT22;2213;49.720;7.296;2023-02-19T13:55:47;10.40;99.90
4399;DHT22;2213;49.720;7.296;2023-02-19T13:58:53;10.30;99.90
4399;DHT22;2213;49.720;7.296;2023-02-19T14:04:46;10.50;99.90
4399;DHT22;2213;49.720;7.296;2023-02-19T14:07:59;10.40;99.90
4399;DHT22;2213;49.720;7.296;2023-02-19T14:10:55;10.30;99.90
4399;DHT22;2213;49.720;7.296;2023-02-19T14:13:57;10.40;99.90
4399;DHT22;2213;49.720;7.296;2023-02-19T14:16:48;10.50;99.90
4399;DHT22;2213;49.720;7.296;2023-02-19T14:19:49;10.40;99.90
4399;DHT22;2213;49.720;7.296;2023-02-19T14:25:53;10.40;99.90
4399;DHT22;2213;49.720;7.296;2023-02-19T14:28:40;10.50;99.90
4399;DHT22;2213;49.720;7.296;2023-02-19T14:31:35;10.50;99.90
4399;DHT22;2213;49.720;7.296;2023-02-19T14:34:12;10.50;99.90
4399;DHT22;2213;49.720;7.296;2023-02-19T14:36:52;10.50;99.90
4399;DHT22;2213;49.720;7.296;2023-02-19T14:39:28;10.50;99.90
4399;DHT22;2213;49.720;7.296;2023-02-19T14:42:04;10.40;99.90
4399;DHT22;2213;49.720;7.296;2023-02-19T14:44:43;10.50;99.90
4399;DHT22;2213;49.720;7.296;2023-02-19T14:47:17;10.50;99.90
4399;DHT22;2213;49.720;7.296;2023-02-19T14:49:50;10.40;99.90
4399;DHT22;2213;49.720;7.296;2023-02-19T14:52:27;10.30;99.90
4399;DHT22;2213;49.720;7.296;2023-02-19T14:55:07;10.40;99.90
4399;DHT22;2213;49.720;7.296;2023-02-19T14:57:44;10.30;99.90
4399;DHT22;2213;49.720;7.296;2023-02-19T15:00:23;10.50;99.90
4399;DHT22;2213;49.720;7.296;2023-02-19T15:02:56;10.40;99.90
4399;DHT22;2213;49.720;7.296;2023-02-19T15:05:29;10.50;99.90
4399;DHT22;2213;49.720;7.296;2023-02-19T15:08:07;10.60;99.90
4399;DHT22;2213;49.720;7.296;2023-02-19T15:10:41;10.40;99.90
4399;DHT22;2213;49.720;7.296;2023-02-19T15:13:18;10.50;99.90
4399;DHT22;2213;49.720;7.296;2023-02-19T15:15:54;10.50;99.90
4399;DHT22;2213;49.720;7.296;2023-02-19T15:18:25;10.50;99.90
4399;DHT22;2213;49.720;7.296;2023-02-19T15:21:02;10.40;99.90
4399;DHT22;2213;49.720;7.296;2023-02-19T15:23:34;10.40;99.90
4399;DHT22;2213;49.720;7.296;2023-02-19T15:26:04;10.30;99.90
4399;DHT22;2213;49.720;7.296;2023-02-19T15:28:56;10.30;99.90
4399;DHT22;2213;49.720;7.296;2023-02-19T15:31:27;10.30;99.90
4399;DHT22;2213;49.720;7.296;2023-02-19T15:33:57;10.30;99.90
4399;DHT22;2213;49.720;7.296;2023-02-19T15:36:29;10.20;99.90
4399;DHT22;2213;49.720;7.296;2023-02-19T15:39:02;10.20;99.90
4399;DHT22;2213;49.720;7.296;2023-02-19T15:41:34;10.20;99.90
4399;DHT22;2213;49.720;7.296;2023-02-19T15:44:16;10.20;99.90
4399;DHT22;2213;49.720;7.296;2023-02-19T15:47:07;10.20;99.90
4399;DHT22;2213;49.720;7.296;2023-02-19T15:49:50;10.20;99.90
4399;DHT22;2213;49.720;7.296;2023-02-19T15:52:35;10.10;99.90
4399;DHT22;2213;49.720;7.296;2023-02-19T15:55:37;10.00;99.90
4399;DHT22;2213;49.720;7.296;2023-02-19T15:58:15;10.00;99.90
4399;DHT22;2213;49.720;7.296;2023-02-19T16:00:51;10.00;99.90
4399;DHT22;2213;49.720;7.296;2023-02-19T16:03:26;10.00;99.90
4399;DHT22;2213;49.720;7.296;2023-02-19T16:05:59;10.00;99.90
4399;DHT22;2213;49.720;7.296;2023-02-19T16:08:31;9.90;99.90
4399;DHT22;2213;49.720;7.296;2023-02-19T16:11:04;9.90;99.90
4399;DHT22;2213;49.720;7.296;2023-02-19T16:14:15;10.00;99.90
4399;DHT22;2213;49.720;7.296;2023-02-19T16:16:47;10.00;99.90
4399;DHT22;2213;49.720;7.296;2023-02-19T16:19:21;10.00;99.90
4399;DHT22;2213;49.720;7.296;2023-02-19T16:21:55;10.00;99.90
4399;DHT22;2213;49.720;7.296;2023-02-19T16:24:28;10.10;99.90
4399;DHT22;2213;49.720;7.296;2023-02-19T16:27:03;10.00;99.90
4399;DHT22;2213;49.720;7.296;2023-02-19T16:29:35;9.80;99.90
4399;DHT22;2213;49.720;7.296;2023-02-19T16:32:05;9.80;99.90
4399;DHT22;2213;49.720;7.296;2023-02-19T16:34:44;9.90;99.90
4399;DHT22;2213;49.720;7.296;2023-02-19T16:37:33;9.80;99.90
4399;DHT22;2213;49.720;7.296;2023-02-19T16:43:39;9.90;99.90
4399;DHT22;2213;49.720;7.296;2023-02-19T16:46:11;9.80;99.90
4399;DHT22;2213;49.720;7.296;2023-02-19T16:48:41;9.80;99.90
4399;DHT22;2213;49.720;7.296;2023-02-19T16:51:16;9.90;99.90
4399;DHT22;2213;49.720;7.296;2023-02-19T16:53:49;9.90;99.90
4399;DHT22;2213;49.720;7.296;2023-02-19T16:56:19;9.90;99.90
4399;DHT22;2213;49.720;7.296;2023-02-19T16:58:50;9.90;99.90
4399;DHT22;2213;49.720;7.296;2023-02-19T17:01:19;9.70;99.90
4399;DHT22;2213;49.720;7.296;2023-02-19T17:03:49;9.70;99.90
4399;DHT22;2213;49.720;7.296;2023-02-19T17:06:21;9.70;99.90
4399;DHT22;2213;49.720;7.296;2023-02-19T17:08:50;9.60;99.90
4399;DHT22;2213;49.720;7.296;2023-02-19T17:11:19;9.70;99.90
4399;DHT22;2213;49.720;7.296;2023-02-19T17:13:50;9.70;99.90
4399;DHT22;2213;49.720;7.296;2023-02-19T17:16:21;9.70;99.90
4399;DHT22;2213;49.720;7.296;2023-02-19T17:18:54;9.60;99.90
4399;DHT22;2213;49.720;7.296;2023-02-19T17:21:24;9.70;99.90
4399;DHT22;2213;49.720;7.296;2023-02-19T17:23:54;9.60;99.90
4399;DHT22;2213;49.720;7.296;2023-02-19T17:26:25;9.50;99.90
4399;DHT22;2213;49.720;7.296;2023-02-19T17:28:57;9.50;99.90
4399;DHT22;2213;49.720;7.296;2023-02-19T17:31:26;9.40;99.90
4399;DHT22;2213;49.720;7.296;2023-02-19T17:33:56;9.40;99.90
4399;DHT22;2213;49.720;7.296;2023-02-19T17:36:26;9.40;99.90